Time;durP1;ratioP1;P1;durP2;ratioP2;P2;SDS_P1;SDS_P2;PMS_P1;PMS_P2;Temp;Humidity;BMP_temperature;BMP_pressure;BME280_temperature;BME280_humidity;BME280_pressure;Samples;Min_cycle;Max_cycle;Signal;HPM_P1;HPM_P2
2023/06/22 00:02:25;;;;;;;6.73;6.13;;;;;;;22.30;70.21;99037.19;5160139;27;41742;-88
2023/06/22 00:04:52;;;;;;;7.67;6.97;;;;;;;22.33;70.18;99048.53;5159661;27;42246;-89
2023/06/22 00:07:20;;;;;;;7.37;6.77;;;;;;;22.28;70.39;99040.06;5159915;27;39083;-87
2023/06/22 00:09:50;;;;;;;6.83;6.27;;;;;;;22.30;70.20;99043.44;5159955;27;40693;-89
2023/06/22 00:12:18;;;;;;;6.50;6.00;;;;;;;22.32;70.26;99033.34;5159559;27;41910;-90
2023/06/22 00:14:45;;;;;;;6.87;6.33;;;;;;;22.31;70.14;99018.16;5159890;27;41332;-90
2023/06/22 00:17:13;;;;;;;10.50;7.67;;;;;;;22.31;70.33;99001.97;5159691;27;39283;-88
2023/06/22 00:19:41;;;;;;;7.73;7.03;;;;;;;22.34;71.87;98982.75;5159436;27;40717;-88
2023/06/22 00:22:09;;;;;;;9.47;8.63;;;;;;;22.43;73.27;98989.81;5159701;27;41765;-90
2023/06/22 00:24:36;;;;;;;8.57;7.83;;;;;;;22.39;72.60;98993.00;5195651;27;42442;-89
2023/06/22 00:27:06;;;;;;;7.07;6.40;;;;;;;22.36;72.54;98967.22;5159627;27;39835;-88
2023/06/22 00:29:34;;;;;;;8.13;7.50;;;;;;;22.27;72.85;98932.28;5159269;27;41601;-88
2023/06/22 00:32:02;;;;;;;8.63;7.87;;;;;;;22.43;74.50;98938.56;5176920;27;43291;-88
2023/06/22 00:34:29;;;;;;;9.87;8.97;;;;;;;22.21;75.36;98882.56;5160266;27;41256;-88
2023/06/22 00:36:57;;;;;;;10.43;9.53;;;;;;;22.29;75.61;98885.25;5160804;27;39847;-90
2023/06/22 00:39:25;;;;;;;9.57;8.67;;;;;;;22.31;76.42;98896.72;5160602;27;40637;-88
2023/06/22 00:41:52;;;;;;;11.50;10.40;;;;;;;22.30;77.74;98896.91;5178518;27;42768;-89
2023/06/22 00:44:22;;;;;;;13.00;11.73;;;;;;;22.23;79.20;98877.84;5160536;27;41463;-90
2023/06/22 00:46:50;;;;;;;12.37;11.17;;;;;;;22.17;79.53;98870.41;5160709;27;39131;-89
2023/06/22 00:49:18;;;;;;;12.83;10.53;;;;;;;22.19;79.21;98890.00;5160506;27;40797;-91
2023/06/22 00:51:47;;;;;;;11.80;10.57;;;;;;;22.01;79.35;98873.94;5160091;27;42105;-89
2023/06/22 00:54:15;;;;;;;12.63;11.33;;;;;;;22.04;79.74;98897.06;5160406;27;41576;-89
2023/06/22 00:56:43;;;;;;;11.20;10.07;;;;;;;21.95;79.90;98887.25;5160691;27;38783;-90
2023/06/22 00:59:13;;;;;;;11.87;10.67;;;;;;;21.96;79.86;98895.19;5159935;27;41766;-88
2023/06/22 01:01:42;;;;;;;12.03;9.77;;;;;;;21.86;78.97;98889.94;5141549;27;41437;-90
2023/06/22 01:04:11;;;;;;;10.40;9.40;;;;;;;21.91;78.63;98896.66;5158834;27;40782;-88
2023/06/22 01:06:46;;;;;;;9.33;8.43;;;;;;;21.78;78.39;98887.22;5162635;27;40320;-89
2023/06/22 01:09:21;;;;;;;9.67;8.77;;;;;;;21.77;78.11;98890.91;5162804;27;41767;-88
2023/06/22 01:11:56;;;;;;;9.67;8.77;;;;;;;21.80;78.20;98901.38;5162674;27;42838;-89
2023/06/22 01:14:29;;;;;;;8.93;8.13;;;;;;;21.74;77.66;98901.22;5162463;27;41158;-89
2023/06/22 01:17:02;;;;;;;10.30;9.30;;;;;;;21.71;78.23;98894.28;5162741;27;40079;-89
2023/06/22 01:19:39;;;;;;;12.57;11.37;;;;;;;21.78;78.80;98903.41;5162832;27;40753;-88
2023/06/22 01:22:11;;;;;;;16.27;13.40;;;;;;;21.75;79.40;98911.84;5162808;27;41658;-89
2023/06/22 01:24:48;;;;;;;9.80;8.90;;;;;;;21.76;79.40;98924.28;5179614;27;41154;-91
2023/06/22 01:27:41;;;;;;;11.03;10.03;;;;;;;21.78;80.31;98930.34;5162214;27;40916;-89
2023/06/22 01:30:12;;;;;;;11.90;10.80;;;;;;;21.73;81.00;98929.19;5162340;27;40722;-87
2023/06/22 01:32:42;;;;;;;15.77;14.27;;;;;;;21.69;82.26;98919.72;5162036;27;41911;-88
2023/06/22 01:35:11;;;;;;;14.63;13.23;;;;;;;21.81;81.31;98948.91;5163432;27;41079;-89
2023/06/22 01:37:39;;;;;;;12.50;11.23;;;;;;;21.73;80.56;98942.66;5163154;27;39034;-88
2023/06/22 01:40:08;;;;;;;11.70;10.67;;;;;;;;;;5163359;27;42385;-86
2023/06/22 01:42:38;;;;;;;10.73;9.83;;;;;;;21.78;80.03;98961.88;5163287;27;42188;-89
2023/06/22 01:45:08;;;;;;;12.23;11.13;;;;;;;21.80;79.26;98963.38;5180808;27;41250;-89
2023/06/22 01:47:37;;;;;;;11.17;10.07;;;;;;;21.86;79.37;98976.22;5163247;27;40561;-90
2023/06/22 01:50:07;;;;;;;10.77;9.83;;;;;;;21.88;78.72;98988.72;5163115;27;42422;-88
2023/06/22 01:52:35;;;;;;;11.00;10.00;;;;;;;22.03;78.47;99036.47;5162899;27;41730;-89
2023/06/22 01:55:04;;;;;;;13.17;11.83;;;;;;;21.96;78.52;99072.31;5163147;27;42488;-88
2023/06/22 01:57:31;;;;;;;14.60;13.23;;;;;;;21.97;79.28;99125.25;5162883;27;41875;-88
2023/06/22 02:00:03;;;;;;;13.13;11.93;;;;;;;21.99;80.29;99161.03;5162995;27;40627;-88
2023/06/22 02:02:44;;;;;;;15.37;13.80;;;;;;;22.09;81.47;99208.47;5179068;27;42825;-87
2023/06/22 02:05:17;;;;;;;13.70;12.40;;;;;;;22.14;81.75;99234.94;5161711;27;43918;-88
2023/06/22 02:07:50;;;;;;;12.57;11.47;;;;;;;22.10;81.83;99238.97;5161583;27;39119;-89
2023/06/22 02:10:22;;;;;;;12.73;11.60;;;;;;;22.15;82.21;99266.31;5161565;27;40551;-87
2023/06/22 02:12:52;;;;;;;11.50;10.40;;;;;;;22.05;84.40;99260.19;5161661;27;41896;-86
2023/06/22 02:15:21;;;;;;;12.17;11.07;;;;;;;21.84;85.92;99237.09;5167486;27;42161;-82
2023/06/22 02:17:49;;;;;;;11.63;10.53;;;;;;;21.75;85.91;99232.66;5195795;27;41495;-86
2023/06/22 02:20:18;;;;;;;12.03;10.93;;;;;;;21.77;86.57;99233.31;5174515;27;40803;-91
2023/06/22 02:22:46;;;;;;;11.00;9.83;;;;;;;21.68;86.92;99222.63;5162029;27;41969;-92
2023/06/22 02:25:15;;;;;;;10.43;9.07;;;;;;;21.63;87.04;99212.34;5162176;27;41410;-90
2023/06/22 02:27:43;;;;;;;10.37;9.30;;;;;;;21.67;87.81;99191.28;5161628;27;39203;-86
2023/06/22 02:30:11;;;;;;;11.57;10.37;;;;;;;21.66;87.82;99168.88;5179334;27;41766;-87
2023/06/22 02:32:42;;;;;;;12.80;11.60;;;;;;;21.51;90.38;99121.97;5178601;27;42999;-87
2023/06/22 02:35:10;;;;;;;12.73;11.50;;;;;;;21.52;93.33;99097.53;5180628;27;41238;-85
2023/06/22 02:37:41;;;;;;;13.23;11.83;;;;;;;21.09;93.69;98934.13;5162011;27;40026;-85
2023/06/22 02:40:10;;;;;;;15.30;13.07;;;;;;;21.40;94.83;98871.63;5162671;27;40801;-82
2023/06/22 02:42:38;;;;;;;14.30;12.90;;;;;;;21.28;97.91;98803.75;5162012;27;41751;-85
2023/06/22 02:45:07;;;;;;;14.57;13.17;;;;;;;21.17;99.09;98804.03;5179702;27;43271;-83
2023/06/22 02:47:35;;;;;;;14.00;12.63;;;;;;;21.02;99.80;98813.72;5161909;27;38997;-84
2023/06/22 02:50:04;;;;;;;16.47;14.03;;;;;;;21.04;99.98;98834.13;5161691;27;40605;-86
2023/06/22 02:52:35;;;;;;;12.53;11.30;;;;;;;20.90;99.27;98810.50;5162124;27;41773;-87
2023/06/22 02:55:07;;;;;;;14.97;13.57;;;;;;;20.94;100.00;98814.56;5161745;27;43982;-85
2023/06/22 02:57:34;;;;;;;14.33;13.00;;;;;;;20.97;100.00;98810.69;5161608;27;38970;-82
2023/06/22 03:00:16;;;;;;;13.50;12.20;;;;;;;20.91;100.00;98805.94;5159889;27;40986;-85
2023/06/22 03:02:45;;;;;;;14.60;13.23;;;;;;;21.00;100.00;98821.16;5160634;27;41939;-85
2023/06/22 03:05:14;;;;;;;15.60;14.20;;;;;;;20.96;100.00;98819.78;5177992;27;42337;-86
2023/06/22 03:07:42;;;;;;;13.93;12.57;;;;;;;20.94;99.47;98817.25;5177841;27;41069;-86
2023/06/22 03:10:14;;;;;;;15.73;14.10;;;;;;;21.08;99.37;98850.78;5160762;27;42097;-86
2023/06/22 03:12:43;;;;;;;13.03;11.83;;;;;;;21.01;99.08;98829.06;5175559;27;42596;-85
2023/06/22 03:15:13;;;;;;;14.73;13.23;;;;;;;21.06;98.82;98842.03;5160409;27;41278;-85
2023/06/22 03:17:42;;;;;;;14.93;13.47;;;;;;;21.06;98.24;98847.41;5177949;27;40716;-86
2023/06/22 03:20:11;;;;;;;15.70;14.10;;;;;;;21.10;98.75;98860.41;5160548;27;41279;-86
2023/06/22 03:22:39;;;;;;;16.23;14.70;;;;;;;21.12;98.23;98874.56;5160044;27;43060;-87
2023/06/22 03:25:12;;;;;;;11.93;10.93;;;;;;;21.14;97.26;98891.38;5177863;27;42578;-88
2023/06/22 03:27:44;;;;;;;13.93;12.60;;;;;;;21.24;97.27;98928.16;5160124;27;40397;-87
2023/06/22 03:30:13;;;;;;;13.43;12.13;;;;;;;21.22;96.80;98928.31;5160426;27;40534;-88
2023/06/22 03:32:42;;;;;;;12.97;11.67;;;;;;;21.14;96.94;98921.00;5160094;27;41493;-87
2023/06/22 03:35:13;;;;;;;11.73;10.07;;;;;;;20.94;95.76;98887.25;5144686;27;42139;-88
2023/06/22 03:37:42;;;;;;;11.57;10.57;;;;;;;21.31;95.40;98943.50;5161286;27;38952;-88
2023/06/22 03:40:10;;;;;;;12.23;11.03;;;;;;;21.25;95.11;98932.56;5161798;27;40689;-88
2023/06/22 03:42:38;;;;;;;11.37;10.20;;;;;;;21.31;95.17;98929.19;5160522;27;42141;-88
2023/06/22 03:45:09;;;;;;;13.77;12.43;;;;;;;21.41;95.83;98938.81;5179138;27;42196;-87
2023/06/22 03:47:37;;;;;;;13.37;12.27;;;;;;;21.34;94.97;98921.63;5160725;27;40755;-88
2023/06/22 03:50:05;;;;;;;12.90;11.70;;;;;;;21.46;94.35;98935.66;5160195;27;41034;-89
2023/06/22 03:52:34;;;;;;;11.17;10.17;;;;;;;21.51;93.74;98925.25;5160116;27;42585;-88
2023/06/22 03:55:02;;;;;;;12.20;11.17;;;;;;;21.65;92.99;98946.16;5159926;27;42620;-88
2023/06/22 03:57:30;;;;;;;12.27;11.17;;;;;;;21.62;92.47;98924.94;5160558;27;39723;-89
2023/06/22 03:59:59;;;;;;;11.33;10.23;;;;;;;21.74;91.91;98933.56;5160217;27;41010;-88
2023/06/22 04:02:28;;;;;;;11.57;10.47;;;;;;;21.75;91.41;98930.72;5159740;27;42010;-89
2023/06/22 04:04:56;;;;;;;11.30;10.13;;;;;;;21.81;90.99;98929.19;5160007;27;41102;-89
2023/06/22 04:07:24;;;;;;;10.37;9.37;;;;;;;21.86;90.09;98933.09;5159934;27;38869;-88
2023/06/22 04:09:51;;;;;;;10.60;9.50;;;;;;;21.92;89.98;98931.56;5177154;27;41116;-87
2023/06/22 04:12:19;;;;;;;10.23;9.23;;;;;;;22.06;89.67;98927.41;5159788;27;42579;-85
2023/06/22 04:14:47;;;;;;;9.90;9.00;;;;;;;22.14;89.43;98922.00;5176894;27;41008;-84
2023/06/22 04:17:15;;;;;;;10.10;9.10;;;;;;;22.16;89.07;98917.28;5159747;27;39298;-83
2023/06/22 04:19:44;;;;;;;10.70;9.73;;;;;;;22.24;88.23;98914.63;5176580;27;41163;-84
2023/06/22 04:22:11;;;;;;;10.60;9.60;;;;;;;22.20;88.15;98907.88;5159374;27;42899;-84
2023/06/22 04:24:39;;;;;;;11.33;10.33;;;;;;;22.38;87.91;98924.72;5159148;27;41695;-85
2023/06/22 04:27:07;;;;;;;10.53;9.50;;;;;;;22.33;87.39;98901.97;5195705;27;39982;-87
2023/06/22 04:29:35;;;;;;;10.67;9.77;;;;;;;22.17;87.40;98871.28;5159196;27;41034;-87
2023/06/22 04:32:05;;;;;;;12.00;10.93;;;;;;;22.64;86.93;98931.78;5159408;27;41952;-86
2023/06/22 04:34:32;;;;;;;11.73;10.73;;;;;;;22.58;86.78;98907.16;5160063;27;42334;-85
2023/06/22 04:37:02;;;;;;;10.97;9.97;;;;;;;22.69;86.92;98918.63;5196554;27;40917;-85
2023/06/22 04:39:30;;;;;;;12.23;11.13;;;;;;;22.86;86.64;98925.72;5178013;27;42031;-85
2023/06/22 04:42:00;;;;;;;10.57;9.57;;;;;;;22.80;86.26;98905.63;5164126;27;42735;-86
2023/06/22 04:44:28;;;;;;;11.03;10.03;;;;;;;22.84;86.12;98907.00;5163738;27;41310;-87
2023/06/22 04:46:59;;;;;;;13.20;11.90;;;;;;;22.96;86.55;98931.78;5181358;27;42735;-85
2023/06/22 04:49:32;;;;;;;11.87;10.87;;;;;;;23.02;86.44;98920.25;5164376;27;40863;-85
2023/06/22 04:52:03;;;;;;;11.93;10.73;;;;;;;23.05;86.12;98917.22;5181354;27;41765;-85
2023/06/22 04:54:32;;;;;;;13.37;10.73;;;;;;;23.08;86.24;98914.19;5181535;27;43431;-83
2023/06/22 04:57:00;;;;;;;12.40;11.30;;;;;;;23.13;86.27;98916.34;5180862;27;40011;-84
2023/06/22 04:59:29;;;;;;;11.30;10.30;;;;;;;23.17;85.82;98913.13;5163659;27;40766;-86
2023/06/22 05:01:57;;;;;;;11.80;10.70;;;;;;;23.22;85.41;98915.31;5179583;27;41688;-84
2023/06/22 05:04:27;;;;;;;10.47;9.47;;;;;;;23.27;85.11;98915.63;5162320;27;41373;-84
2023/06/22 05:06:55;;;;;;;12.73;11.60;;;;;;;23.33;85.46;98919.50;5162630;27;39464;-83
2023/06/22 05:09:24;;;;;;;10.40;9.50;;;;;;;23.40;85.18;98915.91;5161655;27;42281;-83
2023/06/22 05:11:52;;;;;;;10.83;9.83;;;;;;;23.48;84.66;98920.44;5180046;27;42758;-86
2023/06/22 05:14:20;;;;;;;10.17;9.33;;;;;;;23.40;84.42;98885.31;5162851;27;40817;-87
2023/06/22 05:16:48;;;;;;;11.73;10.70;;;;;;;23.54;84.02;98895.41;5162930;27;38578;-85
2023/06/22 05:19:16;;;;;;;11.60;10.50;;;;;;;23.68;83.85;98904.63;5179701;27;42194;-86
2023/06/22 05:21:43;;;;;;;12.17;10.93;;;;;;;23.82;83.49;98903.88;5162261;27;43480;-86
2023/06/22 05:24:11;;;;;;;11.93;10.60;;;;;;;23.91;83.20;98903.63;5162178;27;40856;-82
2023/06/22 05:26:41;;;;;;;11.87;10.77;;;;;;;23.92;82.91;98891.81;5162894;27;40129;-81
2023/06/22 05:29:09;;;;;;;13.63;12.23;;;;;;;23.73;82.39;98848.16;5162135;27;40758;-87
2023/06/22 05:31:37;;;;;;;13.37;11.97;;;;;;;24.08;82.20;98890.00;5179353;27;41557;-86
2023/06/22 05:34:04;;;;;;;12.90;11.17;;;;;;;24.23;82.03;98899.88;5180039;27;43194;-87
2023/06/22 05:36:32;;;;;;;14.10;12.80;;;;;;;24.28;81.80;98892.06;5163071;27;40105;-87
2023/06/22 05:39:00;;;;;;;12.53;11.43;;;;;;;24.32;81.53;98895.25;5180899;27;41740;-83
2023/06/22 05:41:27;;;;;;;12.37;11.27;;;;;;;24.51;81.47;98908.25;5180720;27;41924;-82
2023/06/22 05:43:57;;;;;;;13.37;11.83;;;;;;;24.61;80.74;98908.00;5163312;27;41000;-82
2023/06/22 05:46:25;;;;;;;11.77;10.77;;;;;;;24.65;80.45;98896.63;5181939;27;39258;-83
2023/06/22 05:48:52;;;;;;;13.63;12.33;;;;;;;24.84;79.84;98902.53;5180504;27;40975;-82
2023/06/22 05:51:20;;;;;;;12.10;11.10;;;;;;;24.81;79.32;98889.34;5180238;27;41651;-82
2023/06/22 05:53:49;;;;;;;13.67;12.47;;;;;;;25.00;78.54;98902.38;5162482;27;41262;-82
2023/06/22 05:56:17;;;;;;;13.47;12.10;;;;;;;25.10;77.24;98913.78;5160967;27;39252;-83
2023/06/22 05:58:45;;;;;;;12.97;11.80;;;;;;;25.16;77.29;98914.91;5179257;27;41697;-84
2023/06/22 06:01:15;;;;;;;14.70;13.07;;;;;;;25.25;76.73;98914.63;5179341;27;41810;-83
2023/06/22 06:03:44;;;;;;;15.90;11.90;;;;;;;25.36;76.30;98900.56;5197945;27;42292;-82
2023/06/22 06:06:12;;;;;;;13.97;12.47;;;;;;;25.46;76.28;98908.44;5161625;27;38947;-83
2023/06/22 06:08:40;;;;;;;11.80;10.80;;;;;;;25.47;75.59;98882.16;5178766;27;40928;-82
2023/06/22 06:11:08;;;;;;;13.53;12.23;;;;;;;25.67;74.94;98903.09;5179493;27;42982;-84
2023/06/22 06:13:35;;;;;;;14.03;12.60;;;;;;;25.79;74.10;98892.56;5161384;27;42299;-82
2023/06/22 06:16:03;;;;;;;13.77;12.37;;;;;;;25.81;73.30;98887.81;5162009;27;39070;-84
2023/06/22 06:18:32;;;;;;;14.43;13.07;;;;;;;25.94;72.89;98895.25;5179235;27;41964;-83
2023/06/22 06:21:00;;;;;;;13.90;12.70;;;;;;;25.89;72.78;98862.41;5161621;27;41570;-84
2023/06/22 06:23:28;;;;;;;12.27;11.07;;;;;;;26.15;72.02;98872.69;5178922;27;42441;-84
2023/06/22 06:25:55;;;;;;;12.23;11.17;;;;;;;26.30;71.85;98868.91;5179755;27;40933;-84
2023/06/22 06:28:24;;;;;;;11.33;10.20;;;;;;;26.55;71.87;98877.44;5178816;27;41494;-83
2023/06/22 06:30:51;;;;;;;11.60;10.50;;;;;;;26.65;71.13;98863.50;5178919;27;42821;-84
2023/06/22 06:33:20;;;;;;;12.50;11.37;;;;;;;26.80;71.37;98867.81;5178914;27;41616;-83
2023/06/22 06:35:49;;;;;;;13.57;12.27;;;;;;;26.73;69.96;98853.31;5179810;27;41070;-84
2023/06/22 06:38:17;;;;;;;12.83;11.73;;;;;;;26.87;70.33;98861.56;5179709;27;40792;-83
2023/06/22 06:40:45;;;;;;;11.23;10.20;;;;;;;26.94;70.12;98851.63;5162337;27;42767;-83
2023/06/22 06:43:13;;;;;;;13.43;12.17;;;;;;;27.20;68.41;98865.31;5162165;27;41220;-82
2023/06/22 06:45:40;;;;;;;12.73;11.57;;;;;;;27.34;66.39;98861.63;5161665;27;40326;-82
2023/06/22 06:48:09;;;;;;;13.70;12.33;;;;;;;27.52;64.98;98869.25;5160045;27;40814;-81
2023/06/22 06:50:36;;;;;;;13.40;12.10;;;;;;;27.64;64.75;98864.06;5197104;27;42939;-80
2023/06/22 06:53:06;;;;;;;11.67;10.63;;;;;;;27.74;65.17;98868.06;5160459;27;41052;-81
2023/06/22 06:55:34;;;;;;;11.77;10.77;;;;;;;27.79;64.40;98853.88;5178336;27;39871;-83
2023/06/22 06:58:04;;;;;;;12.10;11.03;;;;;;;27.92;64.24;98864.78;5196782;27;41987;-82
2023/06/22 07:00:31;;;;;;;11.93;10.87;;;;;;;28.01;63.27;98862.69;5177850;27;43814;-81
2023/06/22 07:02:59;;;;;;;11.60;10.53;;;;;;;28.12;63.47;98860.19;5159519;27;42253;-82
2023/06/22 07:05:27;;;;;;;12.10;11.00;;;;;;;28.34;62.41;98873.63;5160880;27;39417;-82
2023/06/22 07:07:55;;;;;;;11.07;9.97;;;;;;;28.52;61.85;98880.16;5160418;27;40795;-82
2023/06/22 07:10:24;;;;;;;11.70;10.60;;;;;;;28.67;61.30;98884.53;5178186;27;41890;-83
2023/06/22 07:12:52;;;;;;;12.00;10.73;;;;;;;28.79;60.88;98878.28;5177617;27;41144;-82
2023/06/22 07:15:19;;;;;;;11.97;10.83;;;;;;;29.03;60.48;98884.09;5178023;27;39777;-82
2023/06/22 07:17:47;;;;;;;11.13;10.13;;;;;;;29.23;59.82;98887.59;5160144;27;40672;-82
2023/06/22 07:20:15;;;;;;;12.43;11.23;;;;;;;29.38;58.98;98880.03;5177887;27;43441;-82
2023/06/22 07:22:45;;;;;;;11.37;10.40;;;;;;;29.46;58.83;98862.56;5159974;27;41421;-81
2023/06/22 07:25:15;;;;;;;12.53;11.43;;;;;;;29.62;57.39;98879.28;5160147;27;39066;-82
2023/06/22 07:27:48;;;;;;;12.23;11.13;;;;;;;29.69;58.19;98867.47;5159505;27;43893;-82
2023/06/22 07:30:16;;;;;;;11.27;10.37;;;;;;;29.94;57.55;98876.56;5177684;27;42805;-81
2023/06/22 07:32:43;;;;;;;11.73;10.73;;;;;;;30.16;55.71;98894.34;5177425;27;41557;-82
2023/06/22 07:35:11;;;;;;;12.27;11.13;;;;;;;30.48;54.69;98892.41;5175396;27;39642;-80
2023/06/22 07:37:39;;;;;;;10.83;9.93;;;;;;;30.78;53.74;98887.13;5178009;27;41744;-81
2023/06/22 07:40:09;;;;;;;12.60;11.43;;;;;;;30.94;52.70;98892.00;5178367;27;42211;-81
2023/06/22 07:42:37;;;;;;;10.83;9.90;;;;;;;31.13;51.62;98892.06;5160755;27;42902;-81
2023/06/22 07:45:08;;;;;;;11.63;10.43;;;;;;;31.28;51.70;98878.84;5178685;27;39791;-82
2023/06/22 07:47:36;;;;;;;11.40;10.40;;;;;;;31.51;51.33;98872.66;5160678;27;40660;-81
2023/06/22 07:50:05;;;;;;;10.17;9.20;;;;;;;32.31;49.07;98884.19;5196906;27;42804;-81
2023/06/22 07:52:33;;;;;;;11.60;10.63;;;;;;;33.09;48.22;98887.50;5160301;27;41284;-82
2023/06/22 07:55:02;;;;;;;11.53;10.23;;;;;;;33.84;46.33;98898.47;5160681;27;38874;-80
2023/06/22 07:57:33;;;;;;;11.00;10.10;;;;;;;34.39;43.55;98906.09;5177647;27;41843;-81
2023/06/22 08:00:03;;;;;;;10.63;9.67;;;;;;;35.17;42.53;98910.69;5191861;27;42903;-81
2023/06/22 08:02:43;;;;;;;10.00;9.07;;;;;;;36.18;40.61;98922.19;5192329;27;42518;-80
2023/06/22 08:05:11;;;;;;;10.00;9.10;;;;;;;37.10;38.24;98934.84;5176461;27;39677;-81
2023/06/22 08:07:40;;;;;;;10.02;9.13;;;;;;;38.07;36.86;98945.34;5159054;27;41301;-79
2023/06/22 08:10:11;;;;;;;10.23;9.43;;;;;;;38.65;34.87;98946.03;5159396;27;41793;-81
2023/06/22 08:12:39;;;;;;;11.27;8.93;;;;;;;39.27;34.37;98935.75;5176579;27;42092;-82
2023/06/22 08:15:09;;;;;;;10.90;9.82;;;;;;;40.10;33.31;98939.63;5176383;27;40287;-81
2023/06/22 08:17:37;;;;;;;8.77;8.02;;;;;;;41.02;32.68;98945.38;5158846;27;41365;-82
2023/06/22 08:20:11;;;;;;;9.27;8.35;;;;;;;41.48;31.60;98923.50;5158802;27;43091;-82
2023/06/22 08:22:39;;;;;;;8.98;8.27;;;;;;;41.53;30.61;98940.13;5175629;27;42220;-82
2023/06/22 08:25:08;;;;;;;7.82;7.28;;;;;;;41.37;31.81;98919.19;5195021;27;40047;-82
2023/06/22 08:27:36;;;;;;;8.48;7.85;;;;;;;41.19;31.39;98911.59;5175654;27;41698;-79
2023/06/22 08:30:05;;;;;;;9.27;8.40;;;;;;;40.75;31.54;98904.22;5158592;27;41887;-80
2023/06/22 08:32:33;;;;;;;8.02;7.43;;;;;;;40.45;32.03;98915.56;5175636;27;42243;-78
2023/06/22 08:35:01;;;;;;;8.82;7.88;;;;;;;40.19;32.86;98904.59;5159819;27;39333;-81
2023/06/22 08:37:35;;;;;;;7.75;7.20;;;;;;;40.10;31.93;98903.56;5176992;27;41477;-78
2023/06/22 08:40:04;;;;;;;7.65;7.03;;;;;;;39.81;32.46;98905.38;5176652;27;43396;-78
2023/06/22 08:42:32;;;;;;;7.63;7.03;;;;;;;39.78;32.95;98908.72;5195376;27;42374;-78
2023/06/22 08:45:00;;;;;;;7.63;7.03;;;;;;;39.58;32.55;98884.66;5175624;27;40919;-78
2023/06/22 08:47:28;;;;;;;8.02;7.35;;;;;;;39.30;32.61;98864.00;5157029;27;40772;-77
2023/06/22 08:49:56;;;;;;;7.07;6.47;;;;;;;39.24;32.79;98880.91;5175639;27;43718;-78
2023/06/22 08:52:24;;;;;;;8.23;7.50;;;;;;;39.06;32.98;98885.13;5157588;27;41322;-76
2023/06/22 08:54:53;;;;;;;8.40;7.60;;;;;;;38.96;34.20;98879.53;5175773;27;41098;-79
2023/06/22 08:57:22;;;;;;;8.73;7.93;;;;;;;38.73;34.20;98884.56;5194518;27;41742;-80
2023/06/22 08:59:52;;;;;;;7.90;7.30;;;;;;;38.55;34.12;98885.16;5175598;27;43092;-77
2023/06/22 09:02:20;;;;;;;8.57;7.88;;;;;;;38.51;34.99;98880.41;5175013;27;42284;-79
2023/06/22 09:04:48;;;;;;;8.40;7.70;;;;;;;38.68;33.27;98895.66;5175695;27;39782;-78
2023/06/22 09:07:22;;;;;;;7.68;7.07;;;;;;;38.69;32.91;98896.50;5175510;27;41794;-77
2023/06/22 09:09:49;;;;;;;8.83;8.03;;;;;;;38.94;32.81;98899.25;5175434;27;42789;-77
2023/06/22 09:12:19;;;;;;;7.75;7.15;;;;;;;38.96;33.43;98890.63;5157568;27;44026;-81
2023/06/22 09:14:48;;;;;;;8.05;7.35;;;;;;;38.86;32.81;98896.19;5157522;27;38814;-77
2023/06/22 09:17:16;;;;;;;7.55;6.95;;;;;;;39.05;33.55;98886.22;5193871;27;42690;-78
2023/06/22 09:19:53;;;;;;;8.23;7.53;;;;;;;39.25;31.92;98894.47;5157869;27;41842;-79
2023/06/22 09:22:21;;;;;;;8.13;7.43;;;;;;;39.08;32.38;98896.72;5175341;27;41408;-79
2023/06/22 09:24:49;;;;;;;7.50;6.90;;;;;;;38.95;32.19;98889.00;5175313;27;39832;-77
2023/06/22 09:27:18;;;;;;;6.97;6.38;;;;;;;39.00;31.99;98880.69;5197514;27;42800;-83
2023/06/22 09:29:46;;;;;;;8.38;7.70;;;;;;;38.76;32.16;98874.88;5178861;27;43711;-78
2023/06/22 09:32:14;;;;;;;7.35;6.75;;;;;;;39.52;32.14;98883.06;5179249;27;42344;-84
2023/06/22 09:34:42;;;;;;;7.40;6.72;;;;;;;40.46;30.69;98892.22;5180906;27;39046;-80
2023/06/22 09:37:10;;;;;;;8.52;7.82;;;;;;;41.14;29.44;98906.09;5180556;27;41914;-80
2023/06/22 09:39:37;;;;;;;7.72;7.03;;;;;;;41.56;29.36;98910.91;5180175;27;42586;-78
2023/06/22 09:42:06;;;;;;;7.63;7.03;;;;;;;42.10;28.66;98899.38;5180008;27;42441;-79
2023/06/22 09:44:35;;;;;;;6.97;6.47;;;;;;;41.46;28.63;98894.31;5198503;27;41567;-82
2023/06/22 09:47:04;;;;;;;7.47;6.88;;;;;;;41.92;28.15;98887.06;5162353;27;40985;-83
2023/06/22 09:49:32;;;;;;;6.88;6.35;;;;;;;42.89;27.67;98900.34;5161945;27;41873;-83
2023/06/22 09:51:59;;;;;;;7.35;6.65;;;;;;;43.75;25.62;98911.81;5179776;27;41722;-81
2023/06/22 09:54:27;;;;;;;6.68;6.22;;;;;;;44.70;25.89;98893.94;5198623;27;40830;-83
2023/06/22 09:56:55;;;;;;;6.95;6.35;;;;;;;45.23;24.72;98911.91;5180064;27;42322;-80
2023/06/22 09:59:22;;;;;;;6.38;5.82;;;;;;;45.15;24.27;98904.28;5162032;27;42065;-80
2023/06/22 10:01:52;;;;;;;6.63;5.10;;;;;;;44.99;24.40;98906.66;5177999;27;43283;-80
2023/06/22 10:04:20;;;;;;;6.25;5.75;;;;;;;44.65;25.37;98896.03;5178456;27;39841;-83
2023/06/22 10:06:47;;;;;;;5.32;4.93;;;;;;;44.22;26.01;98884.53;5178239;27;42742;-83
2023/06/22 10:09:15;;;;;;;6.03;5.57;;;;;;;43.60;26.28;98881.44;5178324;27;42120;-83
2023/06/22 10:11:43;;;;;;;6.30;5.70;;;;;;;43.05;27.02;98880.53;5160893;27;41356;-82
2023/06/22 10:14:10;;;;;;;6.13;5.63;;;;;;;42.64;27.56;98872.91;5178315;27;39017;-82
2023/06/22 10:16:38;;;;;;;7.18;5.60;;;;;;;42.11;26.63;98877.94;5179129;27;42651;-83
2023/06/22 10:19:08;;;;;;;6.43;5.82;;;;;;;41.51;27.03;98864.53;5196980;27;43773;-83
2023/06/22 10:21:35;;;;;;;5.65;5.22;;;;;;;41.32;29.37;98846.97;5178101;27;41274;-79
2023/06/22 10:24:05;;;;;;;7.55;5.65;;;;;;;41.31;28.54;98842.50;5160772;27;38934;-81
2023/06/22 10:26:33;;;;;;;6.63;6.07;;;;;;;41.40;28.72;98851.06;5178145;27;40742;-82
2023/06/22 10:29:02;;;;;;;6.00;5.50;;;;;;;41.34;28.40;98853.06;5178173;27;42562;-82
2023/06/22 10:31:30;;;;;;;5.65;5.15;;;;;;;41.30;26.99;98857.53;5196847;27;43301;-83
2023/06/22 10:33:57;;;;;;;5.28;4.88;;;;;;;41.23;28.18;98845.97;5160726;27;40418;-81
2023/06/22 10:36:27;;;;;;;5.50;5.07;;;;;;;41.36;28.20;98825.78;5179114;27;41692;-81
2023/06/22 10:38:55;;;;;;;7.15;5.82;;;;;;;41.44;27.97;98829.84;5196593;27;43342;-81
2023/06/22 10:41:22;;;;;;;6.53;5.63;;;;;;;41.54;28.90;98833.38;5197720;27;42562;-82
2023/06/22 10:43:50;;;;;;;6.40;5.80;;;;;;;41.45;28.39;98834.28;5198082;27;40086;-83
2023/06/22 10:46:18;;;;;;;6.22;5.72;;;;;;;41.49;27.58;98838.97;5161857;27;41835;-83
2023/06/22 10:48:45;;;;;;;5.82;5.15;;;;;;;41.59;28.63;98824.94;5178731;27;41575;-79
2023/06/22 10:51:13;;;;;;;5.45;4.97;;;;;;;41.33;28.59;98823.59;5161327;27;41543;-80
2023/06/22 10:53:43;;;;;;;5.25;4.68;;;;;;;41.07;28.75;98819.44;5178272;27;40709;-77
2023/06/22 10:56:10;;;;;;;7.53;5.10;;;;;;;40.98;28.67;98818.44;5177715;27;41838;-78
2023/06/22 10:58:38;;;;;;;6.00;5.50;;;;;;;41.03;29.22;98813.66;5177855;27;42858;-77
2023/06/22 11:01:06;;;;;;;6.70;6.10;;;;;;;40.85;29.33;98806.91;5177876;27;42436;-78
2023/06/22 11:03:33;;;;;;;5.70;5.05;;;;;;;40.57;29.22;98793.84;5194883;27;41096;-77
2023/06/22 11:06:02;;;;;;;7.00;5.20;;;;;;;40.29;28.96;98797.47;5160402;27;20246;-78
2023/06/22 11:08:30;;;;;;;6.65;5.22;;;;;;;39.86;29.05;98794.44;5176831;27;42043;-78
2023/06/22 11:10:59;;;;;;;7.82;5.25;;;;;;;39.57;29.08;98791.53;5195982;27;42349;-79
2023/06/22 11:13:27;;;;;;;6.43;5.63;;;;;;;39.73;31.11;98761.75;5195910;27;39918;-78
2023/06/22 11:15:55;;;;;;;5.55;5.03;;;;;;;40.05;31.34;98769.63;5177450;27;42728;-78
2023/06/22 11:18:23;;;;;;;6.75;6.03;;;;;;;40.36;30.54;98759.09;5176925;27;43264;-77
2023/06/22 11:20:50;;;;;;;5.97;5.47;;;;;;;40.33;29.62;98766.03;5195688;27;42199;-79
2023/06/22 11:23:18;;;;;;;6.25;5.65;;;;;;;40.53;29.27;98770.56;5176948;27;40895;-76
2023/06/22 11:25:46;;;;;;;8.25;5.15;;;;;;;40.58;28.80;98762.19;5159599;27;41657;-80
2023/06/22 11:28:16;;;;;;;8.18;5.60;;;;;;;40.79;28.90;98766.44;5176894;27;42850;-79
2023/06/22 11:30:43;;;;;;;9.35;5.18;;;;;;;41.07;28.52;98774.97;5176701;27;41958;-79
2023/06/22 11:33:11;;;;;;;5.63;5.10;;;;;;;41.19;27.64;98778.19;5176787;27;40701;-78